createdAt,value
2017-07-10T00:00:46.066Z,85.95
2017-07-10T00:01:47.307Z,85.95
2017-07-10T00:02:48.557Z,85.57
2017-07-10T00:03:49.822Z,86.24
2017-07-10T00:04:51.073Z,86.43
2017-07-10T00:05:52.334Z,86.14
2017-07-10T00:06:53.568Z,86.43
2017-07-10T00:07:54.857Z,86.58
2017-07-10T00:08:56.108Z,86.48
2017-07-10T00:09:57.501Z,86.87
2017-07-10T00:10:58.632Z,87.25
2017-07-10T00:11:59.877Z,87.15
2017-07-10T00:13:01.127Z,86.96
2017-07-10T00:14:02.385Z,87.25
2017-07-10T00:15:03.661Z,87.05
2017-07-10T00:16:04.939Z,87.54
2017-07-10T00:17:06.200Z,87.54
2017-07-10T00:18:07.441Z,87.82
2017-07-10T00:19:08.728Z,87.82
2017-07-10T00:20:10.000Z,87.25
2017-07-10T00:21:11.302Z,87.73
2017-07-10T00:22:12.544Z,87.92
2017-07-10T00:23:13.895Z,87.54
2017-07-10T00:24:15.159Z,87.82
2017-07-10T00:25:16.564Z,87.82
2017-07-10T00:26:17.903Z,88.4
2017-07-10T00:27:19.164Z,88.4
2017-07-10T00:28:20.417Z,88.31
2017-07-10T00:29:21.679Z,88.21
2017-07-10T00:30:22.915Z,88.31
2017-07-10T00:31:24.180Z,88.31
2017-07-10T00:32:25.414Z,88.4
2017-07-10T00:33:26.666Z,88.49
2017-07-10T00:34:27.905Z,88.31
2017-07-10T00:35:29.210Z,88.69
2017-07-10T00:36:30.543Z,88.69
2017-07-10T00:37:31.790Z,88.69
2017-07-10T00:38:33.053Z,88.4
2017-07-10T00:39:34.420Z,88.88
2017-07-10T00:40:35.713Z,88.79
2017-07-10T00:41:36.936Z,88.69
2017-07-10T00:42:38.175Z,88.69
2017-07-10T00:43:39.435Z,88.88
2017-07-10T00:44:40.816Z,88.69
2017-07-10T00:45:42.118Z,88.79
2017-07-10T00:46:43.381Z,88.59
2017-07-10T00:47:44.630Z,88.31
2017-07-10T00:48:45.869Z,88.49
2017-07-10T00:49:47.130Z,88.98
2017-07-10T00:50:48.493Z,88.69
2017-07-10T00:51:49.718Z,88.4
2017-07-10T00:52:50.969Z,88.4
2017-07-10T00:53:52.212Z,88.49
2017-07-10T00:54:53.473Z,87.92
2017-07-10T00:55:54.782Z,88.11
2017-07-10T00:56:56.037Z,88.49
2017-07-10T00:57:57.284Z,88.31
2017-07-10T00:58:58.548Z,88.31
2017-07-10T00:59:59.798Z,88.21
2017-07-10T01:01:01.050Z,88.31
2017-07-10T01:02:02.415Z,88.31
2017-07-10T01:03:03.691Z,88.49
2017-07-10T01:04:04.938Z,88.31
2017-07-10T01:05:06.181Z,88.4
2017-07-10T01:06:07.427Z,88.79
2017-07-10T01:07:08.703Z,88.59
2017-07-10T01:08:09.968Z,88.21
2017-07-10T01:09:11.250Z,88.79
2017-07-10T01:10:12.549Z,88.49
2017-07-10T01:11:13.826Z,88.31
2017-07-10T01:12:15.057Z,88.49
2017-07-10T01:13:16.310Z,88.4
2017-07-10T01:14:17.560Z,88.4
2017-07-10T01:15:18.882Z,88.4
2017-07-10T01:16:20.243Z,88.49
2017-07-10T01:17:21.536Z,88.02
2017-07-10T01:18:22.801Z,88.11
2017-07-10T01:19:24.036Z,88.31
2017-07-10T01:20:25.292Z,88.31
2017-07-10T01:21:26.553Z,88.26
2017-07-10T01:22:27.823Z,88.49
2017-07-10T01:23:29.086Z,88.26
2017-07-10T01:24:30.338Z,88.11
2017-07-10T01:25:31.580Z,88.49
2017-07-10T01:26:32.851Z,88.79
2017-07-10T01:27:34.253Z,88.45
2017-07-10T01:28:35.646Z,88.79
2017-07-10T01:29:36.875Z,88.59
2017-07-10T01:30:38.140Z,88.69
2017-07-10T01:31:39.380Z,88.49
2017-07-10T01:32:40.661Z,88.84
2017-07-10T01:33:41.993Z,88.69
2017-07-10T01:34:43.273Z,88.88
2017-07-10T01:35:44.543Z,88.79
2017-07-10T01:36:45.776Z,89.07
2017-07-10T01:37:47.022Z,89.17
2017-07-10T01:38:48.370Z,88.69
2017-07-10T01:39:49.615Z,88.88
2017-07-10T01:40:50.858Z,88.98
2017-07-10T01:41:52.101Z,88.69
2017-07-10T01:42:53.366Z,88.79
2017-07-10T01:43:54.609Z,88.69
2017-07-10T01:44:55.850Z,88.69
2017-07-10T01:45:57.173Z,88.69
2017-07-10T01:46:58.433Z,88.4
2017-07-10T01:47:59.693Z,87.92
2017-07-10T01:49:00.931Z,88.49
2017-07-10T01:50:02.193Z,88.4
2017-07-10T01:51:03.444Z,88.11
2017-07-10T01:52:04.690Z,88.31
2017-07-10T01:53:05.951Z,87.92
2017-07-10T01:54:07.206Z,88.02
2017-07-10T01:55:08.473Z,87.92
2017-07-10T01:56:09.724Z,88.02
2017-07-10T01:57:10.955Z,88.11
2017-07-10T01:58:12.238Z,87.82
2017-07-10T01:59:13.499Z,87.82
2017-07-10T02:00:14.802Z,87.73
2017-07-10T02:01:16.045Z,87.54
2017-07-10T02:02:17.292Z,87.35
2017-07-10T02:03:18.569Z,87.73
2017-07-10T02:04:19.865Z,87.92
2017-07-10T02:05:21.117Z,87.59
2017-07-10T02:06:22.392Z,87.73
2017-07-10T02:07:23.667Z,87.78
2017-07-10T02:08:24.938Z,87.88
2017-07-10T02:09:26.165Z,88.26
2017-07-10T02:10:27.470Z,88.26
2017-07-10T02:11:28.749Z,88.17
2017-07-10T02:12:30.010Z,88.07
2017-07-10T02:13:31.278Z,88.26
2017-07-10T02:14:32.518Z,88.17
2017-07-10T02:15:33.759Z,87.68
2017-07-10T02:16:35.028Z,88.07
2017-07-10T02:17:36.322Z,87.59
2017-07-10T02:18:37.639Z,87.68
2017-07-10T02:19:38.869Z,88.07
2017-07-10T02:20:40.143Z,88.07
2017-07-10T02:21:41.386Z,87.63
2017-07-10T02:22:42.681Z,87.59
2017-07-10T02:23:44.003Z,87.4
2017-07-10T02:24:45.269Z,87.78
2017-07-10T02:25:46.504Z,87.59
2017-07-10T02:26:47.756Z,87.88
2017-07-10T02:27:48.997Z,87.78
2017-07-10T02:28:50.308Z,87.49
2017-07-10T02:29:51.571Z,87.3
2017-07-10T02:30:52.826Z,86.92
2017-07-10T02:31:54.069Z,87.3
2017-07-10T02:32:55.310Z,87.01
2017-07-10T02:33:56.566Z,87.01
2017-07-10T02:34:57.799Z,86.82
2017-07-10T02:35:59.044Z,87.01
2017-07-10T02:37:00.367Z,86.92
2017-07-10T02:38:01.616Z,86.92
2017-07-10T02:39:02.861Z,86.92
2017-07-10T02:40:04.120Z,87.3
2017-07-10T02:41:05.366Z,87.3
2017-07-10T02:42:06.620Z,87.68
2017-07-10T02:43:07.895Z,87.4
2017-07-10T02:44:09.158Z,87.88
2017-07-10T02:45:10.427Z,87.49
2017-07-10T02:46:11.668Z,87.68
2017-07-10T02:47:12.975Z,87.59
2017-07-10T02:48:14.257Z,87.78
2017-07-10T02:49:15.489Z,87.49
2017-07-10T02:50:16.748Z,87.4
2017-07-10T02:51:18.015Z,86.92
2017-07-10T02:52:19.250Z,86.92
2017-07-10T02:53:20.511Z,86.82
2017-07-10T02:54:21.770Z,87.11
2017-07-10T02:55:23.041Z,86.82
2017-07-10T02:56:24.306Z,86.63
2017-07-10T02:57:25.551Z,87.21
2017-07-10T02:58:26.814Z,87.21
2017-07-10T02:59:28.047Z,86.63
2017-07-10T03:00:29.286Z,86.63
2017-07-10T03:01:30.721Z,87.11
2017-07-10T03:02:32.044Z,87.11
2017-07-10T03:03:33.291Z,86.72
2017-07-10T03:04:34.544Z,86.54
2017-07-10T03:05:35.789Z,86.25
2017-07-10T03:06:37.039Z,86.15
2017-07-10T03:07:38.478Z,86.15
2017-07-10T03:08:39.738Z,85.86
2017-07-10T03:09:41.014Z,86.05
2017-07-10T03:10:42.263Z,86.25
2017-07-10T03:11:43.496Z,86.54
2017-07-10T03:12:44.745Z,86.54
2017-07-10T03:13:46.002Z,86.05
2017-07-10T03:14:47.269Z,86.44
2017-07-10T03:15:48.508Z,86.34
2017-07-10T03:16:49.757Z,86.34
2017-07-10T03:17:51.062Z,86.34
2017-07-10T03:18:52.367Z,86.15
2017-07-10T03:19:53.606Z,86.34
2017-07-10T03:20:54.857Z,86.34
2017-07-10T03:21:56.104Z,86.54
2017-07-10T03:22:57.354Z,86.44
2017-07-10T03:23:58.603Z,86.72
2017-07-10T03:24:59.853Z,86.54
2017-07-10T03:26:01.158Z,86.82
2017-07-10T03:27:02.548Z,86.63
2017-07-10T03:28:03.788Z,86.63
2017-07-10T03:29:05.087Z,86.72
2017-07-10T03:30:06.303Z,86.34
2017-07-10T03:31:07.577Z,87.21
2017-07-10T03:32:08.795Z,86.92
2017-07-10T03:33:10.062Z,87.3
2017-07-10T03:34:11.309Z,87.49
2017-07-10T03:35:12.576Z,87.68
2017-07-10T03:36:13.822Z,87.68
2017-07-10T03:37:15.071Z,87.21
2017-07-10T03:38:16.351Z,87.59
2017-07-10T03:39:17.615Z,87.49
2017-07-10T03:40:18.849Z,87.21
2017-07-10T03:41:20.099Z,87.78
2017-07-10T03:42:21.340Z,87.21
2017-07-10T03:43:22.695Z,87.68
2017-07-10T03:44:23.953Z,87.68
2017-07-10T03:45:25.204Z,87.78
2017-07-10T03:46:26.463Z,87.88
2017-07-10T03:47:27.804Z,87.88
2017-07-10T03:48:29.044Z,88.26
2017-07-10T03:49:30.336Z,87.88
2017-07-10T03:50:31.577Z,88.02
2017-07-10T03:51:32.868Z,87.98
2017-07-10T03:52:34.117Z,88.26
2017-07-10T03:53:35.374Z,87.98
2017-07-10T03:54:36.631Z,88.26
2017-07-10T03:55:37.880Z,88.17
2017-07-10T03:56:39.177Z,88.26
2017-07-10T03:57:40.528Z,88.17
2017-07-10T03:58:41.815Z,88.35
2017-07-10T03:59:43.062Z,87.59
2017-07-10T04:00:44.309Z,87.68
2017-07-10T04:01:45.560Z,88.07
2017-07-10T04:02:46.805Z,87.98
2017-07-10T04:03:48.061Z,87.78
2017-07-10T04:04:49.375Z,87.68
2017-07-10T04:05:50.611Z,87.49
2017-07-10T04:06:51.873Z,87.49
2017-07-10T04:07:53.120Z,86.92
2017-07-10T04:08:54.435Z,87.21
2017-07-10T04:09:55.705Z,86.44
2017-07-10T04:10:56.927Z,86.63
2017-07-10T04:11:58.188Z,86.87
2017-07-10T04:12:59.436Z,86.68
2017-07-10T04:14:00.704Z,86.25
2017-07-10T04:15:02.052Z,86.29
2017-07-10T04:16:03.325Z,86.48
2017-07-10T04:17:04.643Z,86.38
2017-07-10T04:18:05.861Z,86.19
2017-07-10T04:19:07.110Z,85.91
2017-07-10T04:20:08.365Z,85.71
2017-07-10T04:21:09.632Z,85.81
2017-07-10T04:22:10.970Z,85.24
2017-07-10T04:23:12.214Z,85.52
2017-07-10T04:24:13.453Z,85.33
2017-07-10T04:25:14.711Z,85.33
2017-07-10T04:26:15.980Z,85.14
2017-07-10T04:27:17.246Z,84.95
2017-07-10T04:28:18.613Z,85.04
2017-07-10T04:29:19.829Z,84.56
2017-07-10T04:30:21.081Z,84.22
2017-07-10T04:31:22.322Z,84.7
2017-07-10T04:32:23.570Z,84.41
2017-07-10T04:33:24.850Z,84.6
2017-07-10T04:34:26.099Z,83.74
2017-07-10T04:35:27.367Z,83.84
2017-07-10T04:36:28.597Z,83.74
2017-07-10T04:37:29.858Z,83.54
2017-07-10T04:38:31.178Z,83.64
2017-07-10T04:39:32.426Z,83.07
2017-07-10T04:40:33.833Z,83.54
2017-07-10T04:41:34.973Z,83.36
2017-07-10T04:42:36.241Z,83.54
2017-07-10T04:43:37.472Z,83.54
2017-07-10T04:44:38.761Z,83.84
2017-07-10T04:45:40.120Z,84.03
2017-07-10T04:46:41.390Z,83.93
2017-07-10T04:47:42.713Z,84.03
2017-07-10T04:48:43.927Z,84.12
2017-07-10T04:49:45.182Z,84.22
2017-07-10T04:50:46.458Z,83.36
2017-07-10T04:51:47.689Z,83.2
2017-07-10T04:52:49.065Z,83.26
2017-07-10T04:53:50.439Z,83.2
2017-07-10T04:54:51.678Z,83.59
2017-07-10T04:55:52.937Z,83.2
2017-07-10T04:56:54.178Z,82.92
2017-07-10T04:57:55.427Z,83.2
2017-07-10T04:58:56.731Z,83.49
2017-07-10T04:59:58.061Z,83.4
2017-07-10T05:00:59.252Z,83.3
2017-07-10T05:02:00.518Z,82.92
2017-07-10T05:03:01.773Z,83.11
2017-07-10T05:04:03.046Z,83.3
2017-07-10T05:05:04.286Z,83.59
2017-07-10T05:06:05.586Z,83.4
2017-07-10T05:07:06.850Z,83.69
2017-07-10T05:08:08.093Z,83.4
2017-07-10T05:09:09.338Z,83.4
2017-07-10T05:10:10.658Z,83.4
2017-07-10T05:11:11.930Z,83.3
2017-07-10T05:12:13.201Z,83.3
2017-07-10T05:13:14.431Z,83.3
2017-07-10T05:14:15.663Z,83.59
2017-07-10T05:15:16.928Z,83.4
2017-07-10T05:16:18.230Z,83.4
2017-07-10T05:17:19.498Z,83.78
2017-07-10T05:18:20.745Z,83.4
2017-07-10T05:19:22.030Z,83.3
2017-07-10T05:20:23.245Z,83.2
2017-07-10T05:21:24.553Z,82.82
2017-07-10T05:22:25.823Z,83.2
2017-07-10T05:23:27.546Z,83.11
2017-07-10T05:24:28.804Z,83.97
2017-07-10T05:25:30.074Z,83.59
2017-07-10T05:26:31.306Z,83.59
2017-07-10T05:27:32.597Z,83.97
2017-07-10T05:28:33.902Z,83.59
2017-07-10T05:29:35.132Z,83.87
2017-07-10T05:30:36.375Z,84.07
2017-07-10T05:31:37.621Z,83.87
2017-07-10T05:32:38.882Z,83.97
2017-07-10T05:33:40.173Z,83.69
2017-07-10T05:34:41.408Z,83.87
2017-07-10T05:35:42.680Z,83.69
2017-07-10T05:36:43.903Z,84.17
2017-07-10T05:37:45.157Z,84.07
2017-07-10T05:38:46.402Z,84.51
2017-07-10T05:39:47.646Z,84.45
2017-07-10T05:40:49.024Z,84.17
2017-07-10T05:41:50.326Z,84.45
2017-07-10T05:42:51.573Z,84.94
2017-07-10T05:43:52.841Z,84.36
2017-07-10T05:44:54.094Z,84.74
2017-07-10T05:45:55.382Z,84.94
2017-07-10T05:46:56.768Z,84.07
2017-07-10T05:47:58.142Z,84.36
2017-07-10T05:48:59.379Z,85.22
2017-07-10T05:50:00.628Z,85.13
2017-07-10T05:51:01.927Z,85.32
2017-07-10T05:52:03.186Z,85.41
2017-07-10T05:53:04.485Z,85.75
2017-07-10T05:54:05.784Z,86.24
2017-07-10T05:55:07.023Z,86.81
2017-07-10T05:56:08.290Z,87.1
2017-07-10T05:57:09.526Z,87.39
2017-07-10T05:58:10.890Z,88.35
2017-07-10T05:59:12.127Z,88.35
2017-07-10T06:00:13.434Z,87.87
2017-07-10T06:01:14.625Z,88.83
2017-07-10T06:02:15.884Z,89.12
2017-07-10T06:03:17.141Z,89.6
2017-07-10T06:04:18.434Z,89.02
2017-07-10T06:05:19.675Z,89.02
2017-07-10T06:06:20.995Z,89.98
2017-07-10T06:07:22.234Z,89.98
2017-07-10T06:08:23.481Z,90.37
2017-07-10T06:09:24.729Z,90.66
2017-07-10T06:10:25.978Z,90.8
2017-07-10T06:11:27.237Z,89.45
2017-07-10T06:12:28.483Z,89.07
2017-07-10T06:13:29.767Z,89.54
2017-07-10T06:14:31.012Z,90.22
2017-07-10T06:15:32.270Z,90.89
2017-07-10T06:16:33.493Z,90.12
2017-07-10T06:17:34.818Z,90.03
2017-07-10T06:18:36.072Z,89.64
2017-07-10T06:19:37.370Z,89.36
2017-07-10T06:20:38.610Z,88.87
2017-07-10T06:21:39.862Z,88.49
2017-07-10T06:22:41.152Z,88.59
2017-07-10T06:23:42.664Z,88.39
2017-07-10T06:24:43.938Z,88.78
2017-07-10T06:25:45.197Z,88.87
2017-07-10T06:26:46.444Z,88.59
2017-07-10T06:27:47.693Z,87.86
2017-07-10T06:28:48.942Z,88.15
2017-07-10T06:29:50.182Z,88.15
2017-07-10T06:30:51.433Z,88.34
2017-07-10T06:31:52.683Z,87.57
2017-07-10T06:32:53.930Z,88.92
2017-07-10T06:33:55.178Z,88.24
2017-07-10T06:34:56.484Z,88.82
2017-07-10T06:35:57.684Z,89.21
2017-07-10T06:36:58.930Z,89.69
2017-07-10T06:38:00.172Z,89.4
2017-07-10T06:39:01.422Z,89.5
2017-07-10T06:40:02.774Z,90.17
2017-07-10T06:41:04.045Z,89.98
2017-07-10T06:42:05.274Z,89.11
2017-07-10T06:43:06.529Z,88.73
2017-07-10T06:44:07.770Z,88.15
2017-07-10T06:45:09.009Z,88
2017-07-10T06:46:10.254Z,88.87
2017-07-10T06:47:11.564Z,88.48
2017-07-10T06:48:12.793Z,88.77
2017-07-10T06:49:14.133Z,88.39
2017-07-10T06:50:15.342Z,88
2017-07-10T06:51:16.621Z,87.81
2017-07-10T06:52:17.861Z,87.23
2017-07-10T06:53:19.149Z,87.18
2017-07-10T06:54:20.405Z,86.6
2017-07-10T06:55:21.664Z,86.12
2017-07-10T06:56:23.009Z,85.83
2017-07-10T06:57:24.258Z,86.02
2017-07-10T06:58:25.514Z,86.12
2017-07-10T06:59:26.764Z,85.97
2017-07-10T07:00:28.098Z,86.65
2017-07-10T07:01:29.294Z,86.07
2017-07-10T07:02:30.561Z,85.97
2017-07-10T07:03:31.844Z,84.62
2017-07-10T07:04:33.111Z,84.76
2017-07-10T07:05:34.375Z,84.66
2017-07-10T07:06:35.680Z,83.26
2017-07-10T07:07:37.020Z,83.26
2017-07-10T07:08:38.254Z,81.72
2017-07-10T07:09:39.496Z,81.76
2017-07-10T07:10:40.779Z,81.76
2017-07-10T07:11:42.010Z,80.89
2017-07-10T07:12:43.304Z,80.26
2017-07-10T07:13:44.644Z,79.77
2017-07-10T07:14:45.951Z,78.52
2017-07-10T07:15:47.201Z,78.13
2017-07-10T07:16:48.442Z,78.13
2017-07-10T07:17:49.701Z,78.52
2017-07-10T07:18:50.980Z,79.19
2017-07-10T07:19:52.413Z,79.58
2017-07-10T07:20:53.711Z,79.68
2017-07-10T07:21:54.945Z,78.52
2017-07-10T07:22:56.190Z,79.19
2017-07-10T07:23:57.474Z,79.49
2017-07-10T07:24:58.860Z,79.1
2017-07-10T07:26:00.253Z,79.58
2017-07-10T07:27:01.508Z,78.96
2017-07-10T07:28:02.841Z,79.39
2017-07-10T07:29:04.100Z,79.68
2017-07-10T07:30:05.425Z,79.87
2017-07-10T07:31:06.712Z,79.39
2017-07-10T07:32:07.992Z,79.39
2017-07-10T07:33:09.220Z,79.87
2017-07-10T07:34:10.498Z,79.97
2017-07-10T07:35:11.732Z,79.87
2017-07-10T07:36:12.967Z,80.06
2017-07-10T07:37:14.260Z,79.49
2017-07-10T07:38:15.537Z,80.22
2017-07-10T07:39:16.781Z,80.51
2017-07-10T07:40:18.031Z,80.51
2017-07-10T07:41:19.290Z,80.99
2017-07-10T07:42:20.549Z,81.85
2017-07-10T07:43:21.805Z,82.01
2017-07-10T07:44:23.070Z,82.1
2017-07-10T07:45:24.304Z,82.29
2017-07-10T07:46:25.576Z,82.01
2017-07-10T07:47:26.865Z,81.62
2017-07-10T07:48:28.128Z,81.81
2017-07-10T07:49:29.375Z,81.72
2017-07-10T07:50:30.677Z,82.1
2017-07-10T07:51:31.917Z,81.91
2017-07-10T07:52:33.208Z,82.49
2017-07-10T07:53:34.654Z,83.36
2017-07-10T07:54:35.907Z,83.64
2017-07-10T07:55:37.173Z,84.52
2017-07-10T07:56:38.402Z,84.03
2017-07-10T07:57:39.647Z,84.22
2017-07-10T07:58:40.908Z,83.64
2017-07-10T07:59:42.172Z,83.84
2017-07-10T08:00:43.446Z,83.07
2017-07-10T08:01:44.718Z,83.64
2017-07-10T08:02:45.954Z,83.64
2017-07-10T08:03:47.196Z,83.16
2017-07-10T08:04:48.442Z,83.16
2017-07-10T08:05:49.734Z,83.36
2017-07-10T08:06:50.950Z,83.64
2017-07-10T08:07:52.323Z,83.55
2017-07-10T08:08:53.602Z,83.55
2017-07-10T08:09:54.840Z,83.84
2017-07-10T08:10:56.082Z,83.55
2017-07-10T08:11:57.328Z,83.64
2017-07-10T08:12:58.579Z,83.55
2017-07-10T08:13:59.899Z,83.94
2017-07-10T08:15:01.084Z,83.5
2017-07-10T08:16:02.327Z,83.5
2017-07-10T08:17:03.593Z,82.82
2017-07-10T08:18:04.849Z,81.85
2017-07-10T08:19:06.130Z,81.76
2017-07-10T08:20:07.431Z,82.34
2017-07-10T08:21:08.698Z,82.14
2017-07-10T08:22:10.005Z,82.14
2017-07-10T08:23:11.273Z,82.24
2017-07-10T08:24:12.595Z,81.95
2017-07-10T08:25:13.872Z,81.76
2017-07-10T08:26:15.121Z,82.14
2017-07-10T08:27:16.362Z,82.05
2017-07-10T08:28:17.615Z,81.85
2017-07-10T08:29:18.866Z,82.05
2017-07-10T08:30:20.105Z,82.53
2017-07-10T08:31:21.402Z,81.85
2017-07-10T08:32:22.683Z,82.43
2017-07-10T08:33:23.942Z,82.29
2017-07-10T08:34:25.187Z,83.45
2017-07-10T08:35:26.458Z,83.84
2017-07-10T08:36:27.692Z,83.94
2017-07-10T08:37:28.947Z,84.7
2017-07-10T08:38:30.254Z,84.61
2017-07-10T08:39:31.495Z,84.76
2017-07-10T08:40:32.790Z,85.53
2017-07-10T08:41:34.046Z,85.53
2017-07-10T08:42:35.301Z,85.63
2017-07-10T08:43:36.599Z,85.57
2017-07-10T08:44:37.850Z,85.57
2017-07-10T08:45:39.137Z,85.47
2017-07-10T08:46:40.405Z,85.19
2017-07-10T08:47:41.633Z,85.67
2017-07-10T08:48:42.883Z,85.38
2017-07-10T08:49:44.163Z,84.8
2017-07-10T08:50:45.392Z,85.09
2017-07-10T08:51:46.641Z,84.99
2017-07-10T08:52:47.889Z,84.7
2017-07-10T08:53:49.141Z,84.9
2017-07-10T08:54:50.386Z,84.52
2017-07-10T08:55:51.664Z,84.75
2017-07-10T08:56:52.920Z,84.36
2017-07-10T08:57:54.196Z,83.98
2017-07-10T08:58:55.460Z,83.88
2017-07-10T08:59:56.712Z,84.55
2017-07-10T09:00:57.951Z,83.3
2017-07-10T09:01:59.290Z,82.92
2017-07-10T09:03:00.648Z,81.57
2017-07-10T09:04:01.891Z,82.28
2017-07-10T09:05:03.118Z,81.85
2017-07-10T09:06:04.377Z,81.32
2017-07-10T09:07:05.617Z,81.02
2017-07-10T09:08:06.854Z,81.02
2017-07-10T09:09:08.102Z,79.87
2017-07-10T09:10:09.353Z,79.68
2017-07-10T09:11:10.601Z,79.62
2017-07-10T09:12:11.973Z,79.33
2017-07-10T09:13:13.230Z,78.46
2017-07-10T09:14:14.483Z,78.36
2017-07-10T09:15:15.757Z,78.5
2017-07-10T09:16:17.064Z,77.25
2017-07-10T09:17:18.330Z,77.73
2017-07-10T09:18:19.617Z,77.19
2017-07-10T09:19:20.859Z,76.32
2017-07-10T09:20:22.105Z,75.2
2017-07-10T09:21:23.373Z,74.9
2017-07-10T09:22:24.713Z,73.36
2017-07-10T09:23:25.972Z,73.97
2017-07-10T09:24:27.219Z,73.55
2017-07-10T09:25:28.473Z,73.78
2017-07-10T09:26:29.726Z,73.91
2017-07-10T09:27:31.014Z,73.43
2017-07-10T09:28:32.320Z,73.14
2017-07-10T09:29:33.585Z,71.69
2017-07-10T09:30:34.950Z,71.62
2017-07-10T09:31:36.185Z,70.95
2017-07-10T09:32:37.474Z,71.14
2017-07-10T09:33:38.713Z,69.92
2017-07-10T09:34:40.079Z,68.66
2017-07-10T09:35:41.327Z,68.56
2017-07-10T09:36:42.588Z,67.88
2017-07-10T09:37:43.844Z,67.6
2017-07-10T09:38:45.146Z,67.11
2017-07-10T09:39:46.416Z,66.24
2017-07-10T09:40:47.708Z,65.98
2017-07-10T09:41:48.983Z,66.37
2017-07-10T09:42:50.228Z,65.79
2017-07-10T09:43:51.501Z,65.79
2017-07-10T09:44:52.808Z,64.56
2017-07-10T09:45:54.153Z,64.65
2017-07-10T09:46:55.339Z,64.37
2017-07-10T09:47:56.597Z,64.07
2017-07-10T09:48:57.853Z,63.98
2017-07-10T09:49:59.114Z,65.17
2017-07-10T09:51:00.473Z,64.69
2017-07-10T09:52:01.752Z,63.85
2017-07-10T09:53:02.995Z,63.46
2017-07-10T09:54:04.252Z,62.62
2017-07-10T09:55:05.510Z,62.42
2017-07-10T09:56:06.772Z,61.38
2017-07-10T09:57:08.017Z,60.61
2017-07-10T09:58:09.308Z,60.25
2017-07-10T09:59:10.580Z,59.79
2017-07-10T10:00:12.086Z,57.97
2017-07-10T10:01:13.335Z,55.99
2017-07-10T10:02:14.592Z,54.26
2017-07-10T10:03:15.841Z,53.05
2017-07-10T10:04:17.192Z,50.92
2017-07-10T10:05:18.469Z,49.41
2017-07-10T10:06:19.752Z,48.11
2017-07-10T10:07:21.126Z,44.44
2017-07-10T10:08:22.497Z,42.13
2017-07-10T10:09:23.676Z,41.58
2017-07-10T10:10:25.037Z,39.86
2017-07-10T10:11:26.285Z,38.92
2017-07-10T10:12:27.535Z,36.49
2017-07-10T10:13:28.806Z,35.82
2017-07-10T10:14:30.078Z,34.66
2017-07-10T10:15:31.437Z,33.7
2017-07-10T10:16:32.794Z,32.28
2017-07-10T10:17:34.063Z,30.74
2017-07-10T10:18:35.326Z,30.57
2017-07-10T10:19:36.604Z,29.11
2017-07-10T10:20:37.867Z,27.95
2017-07-10T10:21:39.214Z,27.92
2017-07-10T10:22:40.442Z,27.81
2017-07-10T10:23:41.706Z,26.84
2017-07-10T10:24:42.965Z,27.14
2017-07-10T10:25:44.222Z,27.25
2017-07-10T10:26:45.481Z,26.37
2017-07-10T10:27:46.741Z,26.17
2017-07-10T10:28:48.030Z,26.56
2017-07-10T10:29:49.302Z,25.46
2017-07-10T10:30:50.582Z,26.43
2017-07-10T10:31:51.816Z,27.4
2017-07-10T10:32:53.085Z,27.98
2017-07-10T10:33:54.523Z,28.17
2017-07-10T10:34:55.810Z,29.44
2017-07-10T10:35:57.061Z,30.41
2017-07-10T10:36:58.320Z,30.98
2017-07-10T10:37:59.594Z,31.63
2017-07-10T10:39:00.876Z,32.62
2017-07-10T10:40:02.148Z,32.62
2017-07-10T10:41:03.396Z,31.83
2017-07-10T10:42:04.653Z,32.03
2017-07-10T10:43:05.926Z,32.51
2017-07-10T10:44:07.245Z,33.07
2017-07-10T10:45:08.498Z,33.44
2017-07-10T10:46:09.770Z,35.26
2017-07-10T10:47:11.011Z,35.26
2017-07-10T10:48:12.340Z,36.52
2017-07-10T10:49:13.585Z,36.99
2017-07-10T10:50:14.854Z,37.27
2017-07-10T10:51:16.130Z,38.25
2017-07-10T10:52:17.385Z,39.22
2017-07-10T10:53:18.646Z,39.11
2017-07-10T10:54:19.901Z,39.69
2017-07-10T10:55:21.158Z,39.49
2017-07-10T10:56:22.480Z,40.27
2017-07-10T10:57:23.787Z,40.55
2017-07-10T10:58:24.990Z,40.17
2017-07-10T10:59:26.240Z,39.59
2017-07-10T11:00:27.499Z,39.19
2017-07-10T11:01:28.762Z,40.35
2017-07-10T11:02:30.026Z,41.23
2017-07-10T11:03:31.286Z,40.74
2017-07-10T11:04:32.976Z,41.8
2017-07-10T11:05:34.214Z,41.49
2017-07-10T11:06:35.482Z,42.56
2017-07-10T11:07:36.815Z,41.97
2017-07-10T11:08:38.081Z,42.76
2017-07-10T11:09:39.345Z,42.95
2017-07-10T11:10:40.600Z,42.68
2017-07-10T11:11:41.851Z,41.6
2017-07-10T11:12:43.163Z,42.48
2017-07-10T11:13:44.495Z,42.58
2017-07-10T11:14:45.700Z,42.95
2017-07-10T11:15:46.973Z,43.03
2017-07-10T11:16:48.220Z,43.59
2017-07-10T11:17:49.473Z,44.09
2017-07-10T11:18:50.892Z,44.26
2017-07-10T11:19:52.180Z,44.45
2017-07-10T11:20:53.461Z,45.51
2017-07-10T11:21:54.723Z,46.09
2017-07-10T11:22:56.057Z,45.8
2017-07-10T11:23:57.293Z,45.9
2017-07-10T11:24:58.607Z,46.29
2017-07-10T11:25:59.882Z,45.61
2017-07-10T11:27:01.148Z,45.51
2017-07-10T11:28:02.434Z,46.97
2017-07-10T11:29:03.670Z,46.97
2017-07-10T11:30:04.961Z,45.7
2017-07-10T11:31:06.208Z,45.82
2017-07-10T11:32:07.537Z,44.94
2017-07-10T11:33:08.789Z,44.38
2017-07-10T11:34:10.102Z,44.28
2017-07-10T11:35:11.345Z,44.2
2017-07-10T11:36:12.637Z,43.84
2017-07-10T11:37:13.892Z,42.46
2017-07-10T11:38:15.175Z,42.46
2017-07-10T11:39:16.517Z,43.44
2017-07-10T11:40:17.776Z,43.42
2017-07-10T11:41:19.025Z,43.42
2017-07-10T11:42:20.309Z,43.23
2017-07-10T11:43:21.579Z,44.28
2017-07-10T11:44:22.931Z,44.79
2017-07-10T11:45:24.205Z,44.18
2017-07-10T11:46:25.445Z,44.28
2017-07-10T11:47:26.734Z,44.38
2017-07-10T11:48:27.990Z,43.4
2017-07-10T11:49:29.268Z,44.18
2017-07-10T11:50:30.490Z,44.96
2017-07-10T11:51:31.758Z,44.48
2017-07-10T11:52:32.997Z,44.26
2017-07-10T11:53:34.256Z,44.84
2017-07-10T11:54:35.499Z,45.61
2017-07-10T11:55:36.793Z,46.09
2017-07-10T11:56:38.134Z,46.66
2017-07-10T11:57:39.378Z,46.85
2017-07-10T11:58:40.636Z,47.14
2017-07-10T11:59:41.872Z,48
2017-07-10T12:00:43.207Z,48.1
2017-07-10T12:01:44.456Z,48.1
2017-07-10T12:02:45.724Z,48
2017-07-10T12:03:46.994Z,48
2017-07-10T12:04:48.276Z,48.49
2017-07-10T12:05:49.502Z,49.17
2017-07-10T12:06:50.768Z,47.8
2017-07-10T12:07:52.004Z,48.49
2017-07-10T12:08:53.395Z,48
2017-07-10T12:09:54.740Z,49.27
2017-07-10T12:10:55.963Z,49.17
2017-07-10T12:11:57.234Z,48.66
2017-07-10T12:12:58.492Z,48.54
2017-07-10T12:13:59.762Z,49.9
2017-07-10T12:15:01.069Z,49.99
2017-07-10T12:16:02.330Z,49.8
2017-07-10T12:17:03.597Z,49.32
2017-07-10T12:18:04.861Z,49.61
2017-07-10T12:19:06.098Z,50.12
2017-07-10T12:20:07.344Z,49.54
2017-07-10T12:21:08.668Z,49.71
2017-07-10T12:22:10.042Z,50.02
2017-07-10T12:23:11.291Z,49.51
2017-07-10T12:24:12.568Z,49.24
2017-07-10T12:25:13.846Z,49.24
2017-07-10T12:26:15.097Z,49.95
2017-07-10T12:27:16.366Z,48.39
2017-07-10T12:28:17.626Z,47.83
2017-07-10T12:29:18.890Z,47.24
2017-07-10T12:30:20.136Z,46.09
2017-07-10T12:31:21.399Z,46.31
2017-07-10T12:32:22.678Z,44.55
2017-07-10T12:33:23.923Z,44.48
2017-07-10T12:34:25.176Z,44.48
2017-07-10T12:35:26.419Z,45.16
2017-07-10T12:36:27.678Z,44.01
2017-07-10T12:37:28.938Z,44.01
2017-07-10T12:38:30.212Z,44.49
2017-07-10T12:39:31.490Z,42.74
2017-07-10T12:40:32.826Z,43.91
2017-07-10T12:41:34.095Z,43.91
2017-07-10T12:42:35.344Z,43.4
2017-07-10T12:43:36.601Z,43.99
2017-07-10T12:44:37.850Z,43.4
2017-07-10T12:45:39.161Z,44.96
2017-07-10T12:46:40.421Z,44.16
2017-07-10T12:47:41.686Z,45.41
2017-07-10T12:48:42.936Z,45.12
2017-07-10T12:49:44.188Z,45.8
2017-07-10T12:50:45.458Z,46.88
2017-07-10T12:51:46.710Z,45.78
2017-07-10T12:52:47.944Z,46.17
2017-07-10T12:53:49.201Z,46.07
2017-07-10T12:54:50.471Z,45.97
2017-07-10T12:55:51.725Z,45.68
2017-07-10T12:56:52.993Z,46.07
2017-07-10T12:57:54.251Z,45.87
2017-07-10T12:58:55.521Z,46.85
2017-07-10T12:59:56.785Z,46.07
2017-07-10T13:00:58.118Z,46.83
2017-07-10T13:01:59.373Z,46.9
2017-07-10T13:03:00.637Z,47.17
2017-07-10T13:04:01.884Z,47.66
2017-07-10T13:05:03.155Z,49.19
2017-07-10T13:06:04.488Z,49.46
2017-07-10T13:07:05.729Z,49.56
2017-07-10T13:08:07.006Z,50.41
2017-07-10T13:09:08.261Z,50.8
2017-07-10T13:10:09.540Z,51.87
2017-07-10T13:11:10.857Z,50.99
2017-07-10T13:12:12.157Z,51.29